Waukomis, Oklahoma
Current Conditions -  °F | °C
As of 2:56 PM on Monday 24 Nov 2014 (Local Time) from KEND Reporting Station
Few Clouds Few Clouds  
Wind Chill: 57°   Ceiling: Unl
Heat Index: 57°   Visibility: 10mi
Dew Point: 18°   Wind: 18mph
Humidity: 21%   Direction: 310°NW
Pressure: 29.94"   Gusts: 28mph
Location:  36.28°N, 97.9°W
Report Text: KEND 242056Z 31016G24KT 10SM FEW050 FEW120 14/M08 A2994 RMK AO2A PK WND 33028/2040 SLP144
Loading
Personal Weather Stations






























Interactive Weather Map New forecast layout! Learn more

10-Day Weather Forecast

Advertisements
Track Severe Weather on mobile